sensor_id;sensor_type;location;lat;lon;timestamp;temperature;humidity
47514;DHT22;33951;51.988;5.910;2022-12-20T00:00:05;10.20;99.90
47514;DHT22;33951;51.988;5.910;2022-12-20T00:02:31;10.10;99.90
47514;DHT22;33951;51.988;5.910;2022-12-20T00:04:56;10.10;99.90
47514;DHT22;33951;51.988;5.910;2022-12-20T00:07:22;10.20;99.90
47514;DHT22;33951;51.988;5.910;2022-12-20T00:09:47;10.20;99.90
47514;DHT22;33951;51.988;5.910;2022-12-20T00:12:18;10.20;99.90
47514;DHT22;33951;51.988;5.910;2022-12-20T00:14:44;10.20;99.90
47514;DHT22;33951;51.988;5.910;2022-12-20T00:17:09;10.20;99.90
47514;DHT22;33951;51.988;5.910;2022-12-20T00:19:35;10.30;99.90
47514;DHT22;33951;51.988;5.910;2022-12-20T00:22:01;10.20;99.90
47514;DHT22;33951;51.988;5.910;2022-12-20T00:24:29;10.20;99.90
47514;DHT22;33951;51.988;5.910;2022-12-20T00:26:54;10.20;99.90
47514;DHT22;33951;51.988;5.910;2022-12-20T00:29:20;10.30;99.90
47514;DHT22;33951;51.988;5.910;2022-12-20T00:31:46;10.30;99.90
47514;DHT22;33951;51.988;5.910;2022-12-20T00:34:11;10.30;99.90
47514;DHT22;33951;51.988;5.910;2022-12-20T00:36:39;10.40;99.90
47514;DHT22;33951;51.988;5.910;2022-12-20T00:39:04;10.40;99.90
47514;DHT22;33951;51.988;5.910;2022-12-20T00:41:32;10.50;99.90
47514;DHT22;33951;51.988;5.910;2022-12-20T00:43:58;10.60;99.90
47514;DHT22;33951;51.988;5.910;2022-12-20T00:46:24;10.60;99.90
47514;DHT22;33951;51.988;5.910;2022-12-20T00:48:50;10.80;99.90
47514;DHT22;33951;51.988;5.910;2022-12-20T00:51:27;10.80;99.90
47514;DHT22;33951;51.988;5.910;2022-12-20T00:53:53;10.80;99.90
47514;DHT22;33951;51.988;5.910;2022-12-20T00:56:20;10.90;99.90
47514;DHT22;33951;51.988;5.910;2022-12-20T00:58:46;10.90;99.90
47514;DHT22;33951;51.988;5.910;2022-12-20T05:01:33;10.80;99.90
47514;DHT22;33951;51.988;5.910;2022-12-20T05:06:38;10.90;99.90
47514;DHT22;33951;51.988;5.910;2022-12-20T05:09:04;10.90;99.90
47514;DHT22;33951;51.988;5.910;2022-12-20T05:11:49;10.90;99.90
47514;DHT22;33951;51.988;5.910;2022-12-20T05:14:40;10.90;99.90
47514;DHT22;33951;51.988;5.910;2022-12-20T05:17:09;11.00;99.90
47514;DHT22;33951;51.988;5.910;2022-12-20T05:19:34;10.90;99.90
47514;DHT22;33951;51.988;5.910;2022-12-20T05:22:00;10.90;99.90
47514;DHT22;33951;51.988;5.910;2022-12-20T05:24:55;11.00;99.90
47514;DHT22;33951;51.988;5.910;2022-12-20T05:27:39;11.00;99.90
47514;DHT22;33951;51.988;5.910;2022-12-20T05:30:07;10.90;99.90
47514;DHT22;33951;51.988;5.910;2022-12-20T05:32:36;10.80;99.90
47514;DHT22;33951;51.988;5.910;2022-12-20T05:35:04;10.80;99.90
47514;DHT22;33951;51.988;5.910;2022-12-20T05:37:29;10.80;99.90
47514;DHT22;33951;51.988;5.910;2022-12-20T05:39:58;10.80;99.90
47514;DHT22;33951;51.988;5.910;2022-12-20T05:42:29;10.80;99.90
47514;DHT22;33951;51.988;5.910;2022-12-20T05:44:57;10.80;99.90
47514;DHT22;33951;51.988;5.910;2022-12-20T05:47:26;10.80;99.90
47514;DHT22;33951;51.988;5.910;2022-12-20T05:49:52;10.80;99.90
47514;DHT22;33951;51.988;5.910;2022-12-20T05:52:20;10.90;99.90
47514;DHT22;33951;51.988;5.910;2022-12-20T05:54:45;10.70;99.90
47514;DHT22;33951;51.988;5.910;2022-12-20T05:57:11;10.70;99.90
47514;DHT22;33951;51.988;5.910;2022-12-20T05:59:39;10.70;99.90
47514;DHT22;33951;51.988;5.910;2022-12-20T06:02:08;10.70;99.90
47514;DHT22;33951;51.988;5.910;2022-12-20T06:04:35;10.90;99.90
47514;DHT22;33951;51.988;5.910;2022-12-20T06:07:02;10.90;99.90
47514;DHT22;33951;51.988;5.910;2022-12-20T06:09:27;10.90;99.90
47514;DHT22;33951;51.988;5.910;2022-12-20T06:11:54;10.90;99.90
47514;DHT22;33951;51.988;5.910;2022-12-20T06:14:20;11.00;99.90
47514;DHT22;33951;51.988;5.910;2022-12-20T06:16:46;10.90;99.90
47514;DHT22;33951;51.988;5.910;2022-12-20T06:19:12;11.10;99.90
47514;DHT22;33951;51.988;5.910;2022-12-20T06:21:38;11.00;99.90
47514;DHT22;33951;51.988;5.910;2022-12-20T06:24:04;11.00;99.90
47514;DHT22;33951;51.988;5.910;2022-12-20T06:26:31;11.00;99.90
47514;DHT22;33951;51.988;5.910;2022-12-20T06:29:03;10.90;99.90
47514;DHT22;33951;51.988;5.910;2022-12-20T06:31:34;10.90;99.90
47514;DHT22;33951;51.988;5.910;2022-12-20T06:34:05;11.00;99.90
47514;DHT22;33951;51.988;5.910;2022-12-20T06:36:32;11.00;99.90
47514;DHT22;33951;51.988;5.910;2022-12-20T06:39:00;10.90;99.90
47514;DHT22;33951;51.988;5.910;2022-12-20T06:41:28;10.90;99.90
47514;DHT22;33951;51.988;5.910;2022-12-20T06:43:56;10.90;99.90
47514;DHT22;33951;51.988;5.910;2022-12-20T06:46:22;11.00;99.90
47514;DHT22;33951;51.988;5.910;2022-12-20T06:48:50;11.00;99.90
47514;DHT22;33951;51.988;5.910;2022-12-20T06:51:19;11.10;99.90
47514;DHT22;33951;51.988;5.910;2022-12-20T06:53:44;11.00;99.90
47514;DHT22;33951;51.988;5.910;2022-12-20T06:56:10;11.00;99.90
47514;DHT22;33951;51.988;5.910;2022-12-20T06:58:36;11.00;99.90
47514;DHT22;33951;51.988;5.910;2022-12-20T07:01:04;11.10;99.90
47514;DHT22;33951;51.988;5.910;2022-12-20T07:03:30;11.00;99.90
47514;DHT22;33951;51.988;5.910;2022-12-20T07:05:56;11.10;99.90
47514;DHT22;33951;51.988;5.910;2022-12-20T07:08:23;11.00;99.90
47514;DHT22;33951;51.988;5.910;2022-12-20T07:10:49;11.10;99.90
47514;DHT22;33951;51.988;5.910;2022-12-20T07:13:22;11.00;99.90
47514;DHT22;33951;51.988;5.910;2022-12-20T07:16:00;11.10;99.90
47514;DHT22;33951;51.988;5.910;2022-12-20T07:18:26;11.20;99.90
47514;DHT22;33951;51.988;5.910;2022-12-20T07:20:57;11.20;99.90
47514;DHT22;33951;51.988;5.910;2022-12-20T07:23:23;11.20;99.90
47514;DHT22;33951;51.988;5.910;2022-12-20T07:26:02;11.10;99.90
47514;DHT22;33951;51.988;5.910;2022-12-20T07:28:34;11.20;99.90
47514;DHT22;33951;51.988;5.910;2022-12-20T07:31:03;11.20;99.90
47514;DHT22;33951;51.988;5.910;2022-12-20T07:33:31;11.20;99.90
47514;DHT22;33951;51.988;5.910;2022-12-20T07:36:04;11.20;99.90
47514;DHT22;33951;51.988;5.910;2022-12-20T07:38:34;11.20;99.90
47514;DHT22;33951;51.988;5.910;2022-12-20T07:41:10;11.10;99.90
47514;DHT22;33951;51.988;5.910;2022-12-20T07:43:36;11.10;99.90
47514;DHT22;33951;51.988;5.910;2022-12-20T07:46:11;11.20;99.90
47514;DHT22;33951;51.988;5.910;2022-12-20T07:48:40;11.10;99.90
47514;DHT22;33951;51.988;5.910;2022-12-20T07:54:10;11.10;99.90
47514;DHT22;33951;51.988;5.910;2022-12-20T07:56:40;11.10;99.90
47514;DHT22;33951;51.988;5.910;2022-12-20T07:59:20;11.10;99.90
47514;DHT22;33951;51.988;5.910;2022-12-20T08:01:56;11.10;99.90
47514;DHT22;33951;51.988;5.910;2022-12-20T08:04:32;11.20;99.90
47514;DHT22;33951;51.988;5.910;2022-12-20T08:06:59;11.20;99.90
47514;DHT22;33951;51.988;5.910;2022-12-20T08:09:32;11.20;99.90
47514;DHT22;33951;51.988;5.910;2022-12-20T08:12:01;11.20;99.90
47514;DHT22;33951;51.988;5.910;2022-12-20T08:14:38;11.10;99.90
47514;DHT22;33951;51.988;5.910;2022-12-20T08:17:17;11.20;99.90
47514;DHT22;33951;51.988;5.910;2022-12-20T08:19:46;11.10;99.90
47514;DHT22;33951;51.988;5.910;2022-12-20T08:22:32;11.10;99.90
47514;DHT22;33951;51.988;5.910;2022-12-20T08:25:16;11.10;99.90
47514;DHT22;33951;51.988;5.910;2022-12-20T08:28:02;11.10;99.90
47514;DHT22;33951;51.988;5.910;2022-12-20T08:30:29;11.00;99.90
47514;DHT22;33951;51.988;5.910;2022-12-20T08:32:55;11.00;99.90
47514;DHT22;33951;51.988;5.910;2022-12-20T08:35:24;11.00;99.90
47514;DHT22;33951;51.988;5.910;2022-12-20T08:37:52;11.00;99.90
47514;DHT22;33951;51.988;5.910;2022-12-20T08:40:21;10.90;99.90
47514;DHT22;33951;51.988;5.910;2022-12-20T08:42:50;10.90;99.90
47514;DHT22;33951;51.988;5.910;2022-12-20T08:45:18;10.90;99.90
47514;DHT22;33951;51.988;5.910;2022-12-20T08:47:58;10.90;99.90
47514;DHT22;33951;51.988;5.910;2022-12-20T08:57:44;10.90;99.90
47514;DHT22;33951;51.988;5.910;2022-12-20T09:00:48;10.90;99.90
47514;DHT22;33951;51.988;5.910;2022-12-20T09:06:22;10.90;99.90
47514;DHT22;33951;51.988;5.910;2022-12-20T09:09:23;11.00;99.90
47514;DHT22;33951;51.988;5.910;2022-12-20T09:12:27;10.90;99.90
47514;DHT22;33951;51.988;5.910;2022-12-20T09:15:01;10.80;99.90
47514;DHT22;33951;51.988;5.910;2022-12-20T09:17:26;10.70;99.90
47514;DHT22;33951;51.988;5.910;2022-12-20T09:20:05;10.70;99.90
47514;DHT22;33951;51.988;5.910;2022-12-20T09:22:34;10.70;99.90
47514;DHT22;33951;51.988;5.910;2022-12-20T09:25:02;10.60;99.90
47514;DHT22;33951;51.988;5.910;2022-12-20T09:27:37;10.60;99.90
47514;DHT22;33951;51.988;5.910;2022-12-20T09:30:10;10.60;99.90
47514;DHT22;33951;51.988;5.910;2022-12-20T09:32:36;10.50;99.90
47514;DHT22;33951;51.988;5.910;2022-12-20T09:35:11;10.50;99.90
47514;DHT22;33951;51.988;5.910;2022-12-20T09:37:37;10.50;99.90
47514;DHT22;33951;51.988;5.910;2022-12-20T09:40:03;10.50;99.90
47514;DHT22;33951;51.988;5.910;2022-12-20T09:42:33;10.50;99.90
47514;DHT22;33951;51.988;5.910;2022-12-20T09:45:06;10.60;99.90
47514;DHT22;33951;51.988;5.910;2022-12-20T09:47:34;10.60;99.90
47514;DHT22;33951;51.988;5.910;2022-12-20T09:50:02;10.50;99.90
47514;DHT22;33951;51.988;5.910;2022-12-20T09:55:27;10.50;99.90
47514;DHT22;33951;51.988;5.910;2022-12-20T10:00:28;10.50;99.90
47514;DHT22;33951;51.988;5.910;2022-12-20T10:02:55;10.50;99.90
47514;DHT22;33951;51.988;5.910;2022-12-20T10:05:53;10.50;99.90
47514;DHT22;33951;51.988;5.910;2022-12-20T10:08:49;10.50;99.90
47514;DHT22;33951;51.988;5.910;2022-12-20T10:16:51;10.50;99.90
47514;DHT22;33951;51.988;5.910;2022-12-20T10:22:25;10.50;99.90
47514;DHT22;33951;51.988;5.910;2022-12-20T10:25:17;10.50;99.90
47514;DHT22;33951;51.988;5.910;2022-12-20T10:28:14;10.60;99.90
47514;DHT22;33951;51.988;5.910;2022-12-20T10:31:29;10.60;99.90
47514;DHT22;33951;51.988;5.910;2022-12-20T10:34:10;10.60;99.90
47514;DHT22;33951;51.988;5.910;2022-12-20T10:36:47;10.50;99.90
47514;DHT22;33951;51.988;5.910;2022-12-20T10:53:26;10.30;99.90
47514;DHT22;33951;51.988;5.910;2022-12-20T10:56:32;10.40;99.90
47514;DHT22;33951;51.988;5.910;2022-12-20T11:09:54;10.30;99.90
47514;DHT22;33951;51.988;5.910;2022-12-20T11:51:22;10.50;99.90
47514;DHT22;33951;51.988;5.910;2022-12-20T12:04:33;10.60;99.90
47514;DHT22;33951;51.988;5.910;2022-12-20T12:13:17;10.60;99.90
47514;DHT22;33951;51.988;5.910;2022-12-20T12:19:40;10.60;99.90
47514;DHT22;33951;51.988;5.910;2022-12-20T12:22:25;10.60;99.90
47514;DHT22;33951;51.988;5.910;2022-12-20T12:24:59;10.60;99.90
47514;DHT22;33951;51.988;5.910;2022-12-20T12:30:04;10.60;99.90
47514;DHT22;33951;51.988;5.910;2022-12-20T12:32:42;10.60;99.90
47514;DHT22;33951;51.988;5.910;2022-12-20T12:44:03;10.70;99.90
47514;DHT22;33951;51.988;5.910;2022-12-20T12:46:41;10.70;99.90
47514;DHT22;33951;51.988;5.910;2022-12-20T12:49:21;10.60;99.90
47514;DHT22;33951;51.988;5.910;2022-12-20T12:51:53;10.60;99.90
47514;DHT22;33951;51.988;5.910;2022-12-20T12:57:17;10.60;99.90
47514;DHT22;33951;51.988;5.910;2022-12-20T12:59:44;10.60;99.90
47514;DHT22;33951;51.988;5.910;2022-12-20T13:13:12;10.60;99.90
47514;DHT22;33951;51.988;5.910;2022-12-20T13:15:49;10.60;99.90
47514;DHT22;33951;51.988;5.910;2022-12-20T13:18:24;10.60;99.90
47514;DHT22;33951;51.988;5.910;2022-12-20T13:21:16;10.60;99.90
47514;DHT22;33951;51.988;5.910;2022-12-20T13:26:51;10.70;99.90
47514;DHT22;33951;51.988;5.910;2022-12-20T13:30:22;10.60;99.90
47514;DHT22;33951;51.988;5.910;2022-12-20T13:40:58;10.70;99.90
47514;DHT22;33951;51.988;5.910;2022-12-20T13:43:33;10.70;99.90
47514;DHT22;33951;51.988;5.910;2022-12-20T13:51:27;10.70;99.90
47514;DHT22;33951;51.988;5.910;2022-12-20T13:53:55;10.70;99.90
47514;DHT22;33951;51.988;5.910;2022-12-20T13:59:45;10.70;99.90
47514;DHT22;33951;51.988;5.910;2022-12-20T14:01:57;10.70;99.90
47514;DHT22;33951;51.988;5.910;2022-12-20T14:04:25;10.70;99.90
47514;DHT22;33951;51.988;5.910;2022-12-20T14:06:58;10.70;99.90
47514;DHT22;33951;51.988;5.910;2022-12-20T14:09:45;10.60;99.90
47514;DHT22;33951;51.988;5.910;2022-12-20T14:12:14;10.60;99.90
47514;DHT22;33951;51.988;5.910;2022-12-20T14:14:52;10.60;99.90
47514;DHT22;33951;51.988;5.910;2022-12-20T14:17:30;10.60;99.90
47514;DHT22;33951;51.988;5.910;2022-12-20T14:22:52;10.60;99.90
47514;DHT22;33951;51.988;5.910;2022-12-20T14:25:40;10.60;99.90
47514;DHT22;33951;51.988;5.910;2022-12-20T14:28:24;10.60;99.90
47514;DHT22;33951;51.988;5.910;2022-12-20T14:31:02;10.60;99.90
47514;DHT22;33951;51.988;5.910;2022-12-20T14:33:40;10.70;99.90
47514;DHT22;33951;51.988;5.910;2022-12-20T14:38:51;10.70;99.90
47514;DHT22;33951;51.988;5.910;2022-12-20T14:41:34;10.70;99.90
47514;DHT22;33951;51.988;5.910;2022-12-20T14:46:33;10.70;99.90
47514;DHT22;33951;51.988;5.910;2022-12-20T14:51:52;10.60;99.90
47514;DHT22;33951;51.988;5.910;2022-12-20T14:54:40;10.60;99.90
47514;DHT22;33951;51.988;5.910;2022-12-20T14:57:14;10.60;99.90
47514;DHT22;33951;51.988;5.910;2022-12-20T15:00:09;10.60;99.90
47514;DHT22;33951;51.988;5.910;2022-12-20T15:08:27;10.70;99.90
47514;DHT22;33951;51.988;5.910;2022-12-20T15:13:35;10.70;99.90
47514;DHT22;33951;51.988;5.910;2022-12-20T15:16:25;10.70;99.90
47514;DHT22;33951;51.988;5.910;2022-12-20T15:19:21;10.70;99.90
47514;DHT22;33951;51.988;5.910;2022-12-20T15:21:47;10.70;99.90
47514;DHT22;33951;51.988;5.910;2022-12-20T15:24:41;10.70;99.90
47514;DHT22;33951;51.988;5.910;2022-12-20T15:31:26;10.40;99.90
47514;DHT22;33951;51.988;5.910;2022-12-20T15:34:27;10.60;99.90
47514;DHT22;33951;51.988;5.910;2022-12-20T15:47:27;10.50;99.90
47514;DHT22;33951;51.988;5.910;2022-12-20T16:01:02;10.50;99.90
47514;DHT22;33951;51.988;5.910;2022-12-20T16:03:49;10.50;99.90
47514;DHT22;33951;51.988;5.910;2022-12-20T16:06:49;10.50;99.90
47514;DHT22;33951;51.988;5.910;2022-12-20T16:09:21;10.50;99.90
47514;DHT22;33951;51.988;5.910;2022-12-20T16:12:16;10.50;99.90
47514;DHT22;33951;51.988;5.910;2022-12-20T16:14:45;10.30;99.90
47514;DHT22;33951;51.988;5.910;2022-12-20T16:17:12;10.40;99.90
47514;DHT22;33951;51.988;5.910;2022-12-20T16:22:19;10.40;99.90
47514;DHT22;33951;51.988;5.910;2022-12-20T16:24:47;10.40;99.90
47514;DHT22;33951;51.988;5.910;2022-12-20T16:37:17;10.30;99.90
47514;DHT22;33951;51.988;5.910;2022-12-20T16:46:39;10.30;99.90
47514;DHT22;33951;51.988;5.910;2022-12-20T16:49:09;10.30;99.90
47514;DHT22;33951;51.988;5.910;2022-12-20T16:51:45;10.20;99.90
47514;DHT22;33951;51.988;5.910;2022-12-20T16:54:20;10.20;99.90
47514;DHT22;33951;51.988;5.910;2022-12-20T16:56:48;10.30;99.90
47514;DHT22;33951;51.988;5.910;2022-12-20T16:59:19;10.30;99.90
47514;DHT22;33951;51.988;5.910;2022-12-20T17:01:46;10.30;99.90
47514;DHT22;33951;51.988;5.910;2022-12-20T17:04:17;10.20;99.90
47514;DHT22;33951;51.988;5.910;2022-12-20T17:06:44;10.30;99.90
47514;DHT22;33951;51.988;5.910;2022-12-20T17:09:13;10.30;99.90
47514;DHT22;33951;51.988;5.910;2022-12-20T17:11:49;10.30;99.90
47514;DHT22;33951;51.988;5.910;2022-12-20T17:14:18;10.30;99.90
47514;DHT22;33951;51.988;5.910;2022-12-20T17:16:44;10.40;99.90
47514;DHT22;33951;51.988;5.910;2022-12-20T17:19:23;10.40;99.90
47514;DHT22;33951;51.988;5.910;2022-12-20T17:21:55;10.20;99.90
47514;DHT22;33951;51.988;5.910;2022-12-20T17:24:32;10.40;99.90
47514;DHT22;33951;51.988;5.910;2022-12-20T17:27:20;10.40;99.90
47514;DHT22;33951;51.988;5.910;2022-12-20T17:33:12;10.40;99.90
47514;DHT22;33951;51.988;5.910;2022-12-20T17:42:47;10.40;99.90
47514;DHT22;33951;51.988;5.910;2022-12-20T17:45:20;10.30;99.90
47514;DHT22;33951;51.988;5.910;2022-12-20T17:51:38;10.40;99.90
47514;DHT22;33951;51.988;5.910;2022-12-20T17:54:29;10.40;99.90
47514;DHT22;33951;51.988;5.910;2022-12-20T17:57:00;10.40;99.90
47514;DHT22;33951;51.988;5.910;2022-12-20T17:59:29;10.30;99.90
47514;DHT22;33951;51.988;5.910;2022-12-20T18:06:11;10.30;99.90
47514;DHT22;33951;51.988;5.910;2022-12-20T18:09:00;10.30;99.90
47514;DHT22;33951;51.988;5.910;2022-12-20T18:11:27;10.40;99.90
47514;DHT22;33951;51.988;5.910;2022-12-20T18:13:57;10.40;99.90
47514;DHT22;33951;51.988;5.910;2022-12-20T18:16:28;10.40;99.90
47514;DHT22;33951;51.988;5.910;2022-12-20T18:19:09;10.40;99.90
47514;DHT22;33951;51.988;5.910;2022-12-20T18:22:52;10.40;99.90
47514;DHT22;33951;51.988;5.910;2022-12-20T18:25:51;10.40;99.90
47514;DHT22;33951;51.988;5.910;2022-12-20T18:46:27;10.40;99.90
47514;DHT22;33951;51.988;5.910;2022-12-20T18:48:54;10.40;99.90
47514;DHT22;33951;51.988;5.910;2022-12-20T18:51:25;10.40;99.90
47514;DHT22;33951;51.988;5.910;2022-12-20T18:53:53;10.40;99.90
47514;DHT22;33951;51.988;5.910;2022-12-20T18:56:24;10.40;99.90
47514;DHT22;33951;51.988;5.910;2022-12-20T18:58:59;10.20;99.90
47514;DHT22;33951;51.988;5.910;2022-12-20T19:01:31;10.40;99.90
47514;DHT22;33951;51.988;5.910;2022-12-20T19:03:59;10.40;99.90
47514;DHT22;33951;51.988;5.910;2022-12-20T19:06:31;10.40;99.90
47514;DHT22;33951;51.988;5.910;2022-12-20T19:09:04;10.50;99.90
47514;DHT22;33951;51.988;5.910;2022-12-20T19:11:34;10.40;99.90
47514;DHT22;33951;51.988;5.910;2022-12-20T19:14:12;10.40;99.90
47514;DHT22;33951;51.988;5.910;2022-12-20T19:16:55;10.30;99.90
47514;DHT22;33951;51.988;5.910;2022-12-20T19:19:34;10.40;99.90
47514;DHT22;33951;51.988;5.910;2022-12-20T19:22:10;10.40;99.90
47514;DHT22;33951;51.988;5.910;2022-12-20T19:24:36;10.40;99.90
47514;DHT22;33951;51.988;5.910;2022-12-20T19:27:04;10.40;99.90
47514;DHT22;33951;51.988;5.910;2022-12-20T19:29:33;10.50;99.90
47514;DHT22;33951;51.988;5.910;2022-12-20T19:32:01;10.50;99.90
47514;DHT22;33951;51.988;5.910;2022-12-20T19:34:30;10.40;99.90
47514;DHT22;33951;51.988;5.910;2022-12-20T19:37:06;10.40;99.90
47514;DHT22;33951;51.988;5.910;2022-12-20T19:39:32;10.40;99.90
47514;DHT22;33951;51.988;5.910;2022-12-20T19:41:57;10.60;99.90
47514;DHT22;33951;51.988;5.910;2022-12-20T19:44:30;10.90;99.90
47514;DHT22;33951;51.988;5.910;2022-12-20T19:46:56;10.80;99.90
47514;DHT22;33951;51.988;5.910;2022-12-20T19:49:22;10.70;99.90
47514;DHT22;33951;51.988;5.910;2022-12-20T19:51:56;10.80;99.90
47514;DHT22;33951;51.988;5.910;2022-12-20T19:54:32;10.80;99.90
47514;DHT22;33951;51.988;5.910;2022-12-20T19:56:59;10.80;99.90
47514;DHT22;33951;51.988;5.910;2022-12-20T19:59:25;10.80;99.90
47514;DHT22;33951;51.988;5.910;2022-12-20T20:04:42;10.60;99.90
47514;DHT22;33951;51.988;5.910;2022-12-20T20:07:13;10.40;99.90
47514;DHT22;33951;51.988;5.910;2022-12-20T20:09:43;10.60;99.90
47514;DHT22;33951;51.988;5.910;2022-12-20T20:12:11;10.50;99.90
47514;DHT22;33951;51.988;5.910;2022-12-20T20:14:47;10.60;99.90
47514;DHT22;33951;51.988;5.910;2022-12-20T20:17:16;10.40;99.90
47514;DHT22;33951;51.988;5.910;2022-12-20T20:19:46;10.50;99.90
47514;DHT22;33951;51.988;5.910;2022-12-20T20:22:17;10.60;99.90
47514;DHT22;33951;51.988;5.910;2022-12-20T20:24:46;10.60;99.90
47514;DHT22;33951;51.988;5.910;2022-12-20T20:27:16;10.70;99.90
47514;DHT22;33951;51.988;5.910;2022-12-20T20:29:42;10.80;99.90
47514;DHT22;33951;51.988;5.910;2022-12-20T20:32:08;10.70;99.90
47514;DHT22;33951;51.988;5.910;2022-12-20T20:34:39;10.70;99.90
47514;DHT22;33951;51.988;5.910;2022-12-20T20:37:08;10.50;99.90
47514;DHT22;33951;51.988;5.910;2022-12-20T20:45:25;10.60;99.90
47514;DHT22;33951;51.988;5.910;2022-12-20T20:47:58;10.40;99.90
47514;DHT22;33951;51.988;5.910;2022-12-20T20:50:44;10.40;99.90
47514;DHT22;33951;51.988;5.910;2022-12-20T20:53:15;10.40;99.90
47514;DHT22;33951;51.988;5.910;2022-12-20T20:55:44;10.40;99.90
47514;DHT22;33951;51.988;5.910;2022-12-20T20:58:10;10.30;99.90
47514;DHT22;33951;51.988;5.910;2022-12-20T21:00:38;10.40;99.90
47514;DHT22;33951;51.988;5.910;2022-12-20T21:03:04;10.50;99.90
47514;DHT22;33951;51.988;5.910;2022-12-20T21:05:45;10.40;99.90
47514;DHT22;33951;51.988;5.910;2022-12-20T21:08:16;10.30;99.90
47514;DHT22;33951;51.988;5.910;2022-12-20T21:10:52;10.40;99.90
47514;DHT22;33951;51.988;5.910;2022-12-20T21:14:00;10.30;99.90
47514;DHT22;33951;51.988;5.910;2022-12-20T21:16:32;10.30;99.90
47514;DHT22;33951;51.988;5.910;2022-12-20T21:19:23;10.40;99.90
47514;DHT22;33951;51.988;5.910;2022-12-20T21:22:08;10.30;99.90
47514;DHT22;33951;51.988;5.910;2022-12-20T21:24:39;10.30;99.90
47514;DHT22;33951;51.988;5.910;2022-12-20T21:27:11;10.40;99.90
47514;DHT22;33951;51.988;5.910;2022-12-20T21:30:00;10.30;99.90
47514;DHT22;33951;51.988;5.910;2022-12-20T21:32:39;10.40;99.90
47514;DHT22;33951;51.988;5.910;2022-12-20T21:35:11;10.30;99.90
47514;DHT22;33951;51.988;5.910;2022-12-20T21:37:39;10.30;99.90
47514;DHT22;33951;51.988;5.910;2022-12-20T21:40:07;10.30;99.90
47514;DHT22;33951;51.988;5.910;2022-12-20T21:42:36;10.30;99.90
47514;DHT22;33951;51.988;5.910;2022-12-20T21:45:02;10.20;99.90
47514;DHT22;33951;51.988;5.910;2022-12-20T21:47:36;10.20;99.90
47514;DHT22;33951;51.988;5.910;2022-12-20T21:50:04;10.20;99.90
47514;DHT22;33951;51.988;5.910;2022-12-20T21:52:42;10.20;99.90
47514;DHT22;33951;51.988;5.910;2022-12-20T21:55:19;10.10;99.90
47514;DHT22;33951;51.988;5.910;2022-12-20T21:57:51;10.20;99.90
47514;DHT22;33951;51.988;5.910;2022-12-20T22:04:06;10.20;99.90
47514;DHT22;33951;51.988;5.910;2022-12-20T22:06:46;10.20;99.90
47514;DHT22;33951;51.988;5.910;2022-12-20T22:12:55;10.10;99.90
47514;DHT22;33951;51.988;5.910;2022-12-20T22:22:57;10.20;99.90
47514;DHT22;33951;51.988;5.910;2022-12-20T22:31:43;10.20;99.90
47514;DHT22;33951;51.988;5.910;2022-12-20T22:34:21;10.20;99.90
47514;DHT22;33951;51.988;5.910;2022-12-20T22:37:29;10.40;99.90
47514;DHT22;33951;51.988;5.910;2022-12-20T22:43:04;10.50;99.90
47514;DHT22;33951;51.988;5.910;2022-12-20T22:46:06;10.70;99.90
47514;DHT22;33951;51.988;5.910;2022-12-20T22:49:28;10.70;99.90
47514;DHT22;33951;51.988;5.910;2022-12-20T22:52:03;10.80;99.90
47514;DHT22;33951;51.988;5.910;2022-12-20T22:54:50;10.70;99.90
47514;DHT22;33951;51.988;5.910;2022-12-20T22:57:27;10.80;99.90
47514;DHT22;33951;51.988;5.910;2022-12-20T22:59:56;10.80;99.90
47514;DHT22;33951;51.988;5.910;2022-12-20T23:02:43;10.80;99.90
47514;DHT22;33951;51.988;5.910;2022-12-20T23:05:18;10.90;99.90
47514;DHT22;33951;51.988;5.910;2022-12-20T23:07:44;10.90;99.90
47514;DHT22;33951;51.988;5.910;2022-12-20T23:10:12;10.90;99.90
47514;DHT22;33951;51.988;5.910;2022-12-20T23:13:04;11.00;99.90
47514;DHT22;33951;51.988;5.910;2022-12-20T23:15:48;10.90;99.90
47514;DHT22;33951;51.988;5.910;2022-12-20T23:18:14;10.80;99.90
47514;DHT22;33951;51.988;5.910;2022-12-20T23:20:47;10.70;99.90
47514;DHT22;33951;51.988;5.910;2022-12-20T23:23:44;10.70;99.90
47514;DHT22;33951;51.988;5.910;2022-12-20T23:26:14;10.70;99.90
47514;DHT22;33951;51.988;5.910;2022-12-20T23:28:45;10.60;99.90
47514;DHT22;33951;51.988;5.910;2022-12-20T23:31:25;10.50;99.90
47514;DHT22;33951;51.988;5.910;2022-12-20T23:33:56;10.50;99.90
47514;DHT22;33951;51.988;5.910;2022-12-20T23:36:31;10.50;99.90
47514;DHT22;33951;51.988;5.910;2022-12-20T23:39:00;10.50;99.90
47514;DHT22;33951;51.988;5.910;2022-12-20T23:41:26;10.70;99.90
47514;DHT22;33951;51.988;5.910;2022-12-20T23:43:57;11.00;99.90
47514;DHT22;33951;51.988;5.910;2022-12-20T23:46:41;10.90;99.90
47514;DHT22;33951;51.988;5.910;2022-12-20T23:49:07;10.80;99.90
47514;DHT22;33951;51.988;5.910;2022-12-20T23:51:35;10.70;99.90
47514;DHT22;33951;51.988;5.910;2022-12-20T23:54:01;10.50;99.90
47514;DHT22;33951;51.988;5.910;2022-12-20T23:56:30;10.40;99.90
47514;DHT22;33951;51.988;5.910;2022-12-20T23:58:58;10.50;99.90
